createdAt,value
2017-12-13T00:01:16.420Z,91.38
2017-12-13T00:03:42.239Z,91.56
2017-12-13T00:06:08.056Z,91.68
2017-12-13T00:08:33.855Z,91.75
2017-12-13T00:10:59.648Z,91.44
2017-12-13T00:13:25.437Z,91.71
2017-12-13T00:15:51.227Z,91.46
2017-12-13T00:18:17.026Z,91.47
2017-12-13T00:20:42.811Z,91.46
2017-12-13T00:25:42.100Z,91.27
2017-12-13T00:28:07.918Z,91.06
2017-12-13T00:30:33.727Z,90.67
2017-12-13T00:32:59.510Z,91.17
2017-12-13T00:35:25.324Z,90.88
2017-12-13T00:37:51.125Z,90.03
2017-12-13T00:40:16.940Z,91.05
2017-12-13T00:42:42.764Z,91.16
2017-12-13T00:45:08.543Z,90.45
2017-12-13T00:47:34.335Z,90.22
2017-12-13T00:50:00.147Z,90.53
2017-12-13T00:52:25.932Z,90.19
2017-12-13T00:54:51.736Z,90.24
2017-12-13T00:57:17.568Z,89.75
2017-12-13T00:59:43.379Z,90.08
2017-12-13T01:02:09.172Z,89.71
2017-12-13T01:04:34.963Z,89.45
2017-12-13T01:07:00.758Z,89.48
2017-12-13T01:09:26.547Z,89.32
2017-12-13T01:11:52.359Z,89.68
2017-12-13T01:14:18.160Z,89.46
2017-12-13T01:16:43.940Z,89.68
2017-12-13T01:19:09.737Z,90.03
2017-12-13T01:21:35.507Z,89.66
2017-12-13T01:24:01.278Z,89.77
2017-12-13T01:26:27.268Z,89.46
2017-12-13T01:28:53.051Z,89.31
2017-12-13T01:31:18.836Z,88.89
2017-12-13T01:33:44.654Z,88.85
2017-12-13T01:36:10.442Z,89.13
2017-12-13T01:38:36.235Z,88.94
2017-12-13T01:41:02.042Z,89.11
2017-12-13T01:43:27.844Z,88.49
2017-12-13T01:45:53.628Z,88.38
2017-12-13T01:48:19.435Z,88.37
2017-12-13T01:50:45.238Z,88.31
2017-12-13T01:53:11.023Z,88.53
2017-12-13T01:55:36.859Z,88.27
2017-12-13T01:58:02.659Z,88.23
2017-12-13T02:00:28.443Z,88.62
2017-12-13T02:02:54.278Z,88.71
2017-12-13T02:05:20.096Z,88.18
2017-12-13T02:07:45.907Z,88.19
2017-12-13T02:10:11.728Z,88.54
2017-12-13T02:12:37.529Z,88.20
2017-12-13T02:15:03.375Z,88.77
2017-12-13T02:17:29.171Z,88.37
2017-12-13T02:19:54.958Z,88.29
2017-12-13T02:22:20.807Z,87.76
2017-12-13T02:24:46.620Z,87.75
2017-12-13T02:27:12.486Z,87.92
2017-12-13T02:29:38.299Z,87.69
2017-12-13T02:32:04.082Z,87.40
2017-12-13T02:34:29.876Z,87.87
2017-12-13T02:36:55.904Z,87.43
2017-12-13T02:39:21.691Z,87.46
2017-12-13T02:41:47.466Z,88.26
2017-12-13T02:44:13.255Z,88.04
2017-12-13T02:46:39.044Z,88.16
2017-12-13T02:49:04.820Z,88.52
2017-12-13T02:51:30.794Z,88.29
2017-12-13T02:53:56.759Z,87.99
2017-12-13T02:56:22.561Z,88.10
2017-12-13T02:58:48.370Z,88.33
2017-12-13T03:01:14.163Z,88.29
2017-12-13T03:03:39.955Z,88.01
2017-12-13T03:06:05.771Z,88.15
2017-12-13T03:08:31.564Z,88.03
2017-12-13T03:10:57.350Z,88.09
2017-12-13T03:13:23.170Z,88.12
2017-12-13T03:15:48.962Z,88.00
2017-12-13T03:18:14.735Z,88.01
2017-12-13T03:20:40.536Z,88.49
2017-12-13T03:23:06.352Z,88.20
2017-12-13T03:25:32.163Z,88.23
2017-12-13T03:27:57.952Z,88.48
2017-12-13T03:30:23.742Z,88.30
2017-12-13T03:32:49.538Z,88.17
2017-12-13T03:35:15.315Z,88.09
2017-12-13T03:37:41.122Z,87.82
2017-12-13T03:40:06.890Z,88.14
2017-12-13T03:42:32.662Z,87.93
2017-12-13T03:44:58.450Z,88.41
2017-12-13T03:47:24.403Z,88.53
2017-12-13T03:49:50.207Z,88.36
2017-12-13T03:52:15.985Z,88.09
2017-12-13T03:54:41.765Z,88.36
2017-12-13T03:57:07.591Z,88.47
2017-12-13T03:59:33.410Z,88.57
2017-12-13T04:01:59.186Z,88.63
2017-12-13T04:04:24.997Z,88.38
2017-12-13T04:06:50.780Z,88.35
2017-12-13T04:09:16.569Z,88.22
2017-12-13T04:11:42.591Z,88.28
2017-12-13T04:14:08.389Z,88.27
2017-12-13T04:16:34.150Z,88.38
2017-12-13T04:18:59.943Z,88.22
2017-12-13T04:21:25.723Z,87.98
2017-12-13T04:23:51.508Z,88.03
2017-12-13T04:26:17.505Z,88.29
2017-12-13T04:28:43.279Z,88.09
2017-12-13T04:31:09.050Z,88.07
2017-12-13T04:33:34.863Z,87.86
2017-12-13T04:36:00.647Z,87.80
2017-12-13T04:38:26.442Z,88.01
2017-12-13T04:40:52.247Z,88.17
2017-12-13T04:43:18.035Z,88.24
2017-12-13T04:45:44.016Z,88.06
2017-12-13T04:48:10.058Z,88.08
2017-12-13T04:50:36.269Z,88.41
2017-12-13T04:53:02.079Z,88.36
2017-12-13T04:55:27.862Z,88.23
2017-12-13T04:57:53.864Z,87.88
2017-12-13T05:00:19.651Z,87.76
2017-12-13T05:02:45.426Z,87.89
2017-12-13T05:05:11.246Z,88.35
2017-12-13T05:07:37.056Z,87.93
2017-12-13T05:10:02.882Z,87.74
2017-12-13T05:12:29.819Z,87.84
2017-12-13T05:14:55.665Z,87.75
2017-12-13T05:17:21.481Z,87.51
2017-12-13T05:19:47.329Z,87.35
2017-12-13T05:22:13.122Z,87.46
2017-12-13T05:24:38.923Z,87.34
2017-12-13T05:27:04.730Z,87.48
2017-12-13T05:29:30.507Z,87.17
2017-12-13T05:31:56.294Z,87.12
2017-12-13T05:34:22.142Z,87.75
2017-12-13T05:36:47.924Z,87.22
2017-12-13T05:39:13.970Z,87.60
2017-12-13T05:41:39.778Z,86.87
2017-12-13T05:44:05.587Z,86.63
2017-12-13T05:46:31.366Z,86.22
2017-12-13T05:48:57.179Z,85.81
2017-12-13T05:51:22.954Z,85.86
2017-12-13T05:53:48.734Z,85.65
2017-12-13T05:56:14.530Z,85.70
2017-12-13T05:58:40.307Z,85.50
2017-12-13T06:01:06.082Z,85.55
2017-12-13T06:03:31.900Z,85.26
2017-12-13T06:05:57.678Z,85.22
2017-12-13T06:08:23.451Z,84.90
2017-12-13T06:10:49.285Z,85.35
2017-12-13T06:13:15.067Z,84.76
2017-12-13T06:15:40.900Z,84.98
2017-12-13T06:18:06.704Z,85.00
2017-12-13T06:20:32.489Z,85.03
2017-12-13T06:22:58.278Z,85.53
2017-12-13T06:25:24.336Z,85.59
2017-12-13T06:27:50.130Z,85.42
2017-12-13T06:30:15.918Z,85.43
2017-12-13T06:32:41.723Z,85.58
2017-12-13T06:35:07.518Z,85.43
2017-12-13T06:37:33.295Z,85.52
2017-12-13T06:39:59.096Z,85.19
2017-12-13T06:42:24.884Z,84.74
2017-12-13T06:44:51.506Z,84.78
2017-12-13T06:47:17.287Z,85.28
2017-12-13T06:49:43.334Z,84.84
2017-12-13T06:52:09.459Z,85.01
2017-12-13T06:54:35.247Z,85.10
2017-12-13T06:57:01.024Z,84.65
2017-12-13T06:59:26.823Z,84.54
2017-12-13T07:01:52.603Z,84.29
2017-12-13T07:04:18.406Z,84.34
2017-12-13T07:06:44.195Z,84.07
2017-12-13T07:09:09.981Z,83.88
2017-12-13T07:11:35.794Z,83.81
2017-12-13T07:14:01.593Z,83.66
2017-12-13T07:16:27.372Z,83.68
2017-12-13T07:19:00.158Z,84.23
2017-12-13T07:21:25.929Z,84.98
2017-12-13T07:23:51.703Z,83.49
2017-12-13T07:26:17.498Z,82.77
2017-12-13T07:28:43.358Z,82.89
2017-12-13T07:31:09.146Z,82.50
2017-12-13T07:33:34.967Z,82.63
2017-12-13T07:36:00.751Z,82.11
2017-12-13T07:38:26.540Z,80.46
2017-12-13T07:40:52.336Z,81.67
2017-12-13T07:43:18.134Z,81.50
2017-12-13T07:45:44.090Z,81.55
2017-12-13T07:48:09.926Z,81.73
2017-12-13T07:50:35.751Z,81.61
2017-12-13T07:53:01.566Z,81.95
2017-12-13T07:55:27.634Z,82.09
2017-12-13T07:57:53.423Z,81.49
2017-12-13T08:00:19.202Z,81.38
2017-12-13T08:02:45.009Z,80.95
2017-12-13T08:05:10.855Z,81.05
2017-12-13T08:07:36.648Z,81.75
2017-12-13T08:10:02.810Z,81.09
2017-12-13T08:12:28.607Z,81.14
2017-12-13T08:14:54.386Z,80.79
2017-12-13T08:17:20.211Z,80.37
2017-12-13T08:19:46.011Z,80.68
2017-12-13T08:22:11.795Z,80.88
2017-12-13T08:24:37.593Z,80.13
2017-12-13T08:27:03.371Z,79.83
2017-12-13T08:29:29.154Z,79.82
2017-12-13T08:31:54.947Z,79.95
2017-12-13T08:34:20.739Z,79.54
2017-12-13T08:36:46.547Z,79.82
2017-12-13T08:39:12.373Z,79.45
2017-12-13T08:41:38.168Z,79.93
2017-12-13T08:44:03.955Z,79.68
2017-12-13T08:46:29.762Z,79.39
2017-12-13T08:48:55.559Z,79.34
2017-12-13T08:51:21.389Z,79.80
2017-12-13T08:53:47.188Z,79.44
2017-12-13T08:56:13.015Z,79.66
2017-12-13T08:58:38.829Z,79.20
2017-12-13T09:01:04.654Z,79.18
2017-12-13T09:03:31.042Z,79.11
2017-12-13T09:05:56.835Z,78.96
2017-12-13T09:08:22.976Z,79.13
2017-12-13T09:10:49.493Z,77.92
2017-12-13T09:13:15.299Z,78.40
2017-12-13T09:15:42.054Z,78.50
2017-12-13T09:18:10.102Z,79.00
2017-12-13T09:20:35.904Z,79.26
2017-12-13T09:23:01.704Z,78.45
2017-12-13T09:25:27.489Z,78.40
2017-12-13T09:27:56.529Z,78.68
2017-12-13T09:30:22.358Z,77.92
2017-12-13T09:32:48.952Z,77.67
2017-12-13T09:35:16.074Z,78.32
2017-12-13T09:37:41.867Z,78.13
2017-12-13T09:40:09.363Z,77.50
2017-12-13T09:42:35.152Z,77.37
2017-12-13T09:45:01.481Z,77.18
2017-12-13T09:47:27.625Z,77.40
2017-12-13T09:49:53.435Z,76.85
2017-12-13T09:52:19.263Z,77.28
2017-12-13T09:54:45.099Z,76.82
2017-12-13T09:57:10.892Z,76.80
2017-12-13T09:59:36.721Z,76.71
2017-12-13T10:02:03.278Z,76.62
2017-12-13T10:04:29.723Z,76.30
2017-12-13T10:06:56.496Z,75.98
2017-12-13T10:09:22.512Z,75.94
2017-12-13T10:11:48.956Z,75.98
2017-12-13T10:14:14.746Z,75.81
2017-12-13T10:16:41.474Z,75.54
2017-12-13T10:19:08.610Z,76.00
2017-12-13T10:21:34.398Z,75.79
2017-12-13T10:24:00.636Z,75.42
2017-12-13T10:26:26.984Z,76.00
2017-12-13T10:28:53.736Z,76.09
2017-12-13T10:31:19.636Z,76.13
2017-12-13T10:33:45.444Z,75.52
2017-12-13T10:36:11.891Z,75.82
2017-12-13T10:38:37.704Z,76.11
2017-12-13T10:41:04.304Z,75.83
2017-12-13T10:43:30.581Z,76.26
2017-12-13T10:45:57.646Z,76.60
2017-12-13T10:48:24.318Z,76.10
2017-12-13T10:50:50.958Z,76.39
2017-12-13T10:53:17.331Z,76.03
2017-12-13T10:55:43.134Z,75.89
2017-12-13T10:58:09.268Z,76.15
2017-12-13T11:00:35.920Z,75.90
2017-12-13T11:03:02.327Z,75.72
2017-12-13T11:05:29.208Z,75.83
2017-12-13T11:07:55.332Z,75.35
2017-12-13T11:10:21.459Z,75.06
2017-12-13T11:12:47.291Z,75.16
2017-12-13T11:15:13.349Z,75.01
2017-12-13T11:17:39.268Z,75.26
2017-12-13T11:20:06.496Z,75.43
2017-12-13T11:22:32.670Z,75.85
2017-12-13T11:24:59.274Z,75.40
2017-12-13T11:27:25.399Z,75.83
2017-12-13T11:29:51.191Z,76.36
2017-12-13T11:32:17.635Z,76.87
2017-12-13T11:34:43.419Z,77.90
2017-12-13T11:37:10.172Z,78.45
2017-12-13T11:39:37.518Z,79.60
2017-12-13T11:42:03.361Z,80.95
2017-12-13T11:44:29.831Z,82.78
2017-12-13T11:46:56.590Z,83.61
2017-12-13T11:49:22.642Z,84.62
2017-12-13T11:51:48.478Z,85.47
2017-12-13T11:54:16.294Z,86.44
2017-12-13T11:56:43.900Z,87.24
2017-12-13T11:59:09.746Z,87.87
2017-12-13T12:01:35.559Z,88.06
2017-12-13T12:04:01.430Z,88.76
2017-12-13T12:06:28.566Z,89.56
2017-12-13T12:08:54.460Z,90.14
2017-12-13T12:11:20.281Z,90.84
2017-12-13T12:13:47.108Z,90.55
2017-12-13T12:16:13.272Z,91.22
2017-12-13T12:18:39.274Z,91.10
2017-12-13T12:21:05.070Z,90.98
2017-12-13T12:23:31.919Z,91.66
2017-12-13T12:25:58.723Z,91.83
2017-12-13T12:28:25.684Z,91.65
2017-12-13T12:30:53.016Z,91.59
2017-12-13T12:33:19.023Z,91.53
2017-12-13T12:35:44.824Z,91.52
2017-12-13T12:38:11.298Z,91.38
2017-12-13T12:40:37.890Z,91.84
2017-12-13T12:43:03.699Z,91.63
2017-12-13T12:45:29.495Z,91.54
2017-12-13T12:47:55.283Z,91.98
2017-12-13T12:50:21.076Z,91.91
2017-12-13T12:52:46.903Z,91.81
2017-12-13T12:55:12.695Z,91.98
2017-12-13T12:57:38.487Z,91.96
2017-12-13T13:00:04.319Z,91.74
2017-12-13T13:02:30.699Z,91.67
2017-12-13T13:04:56.487Z,91.86
2017-12-13T13:07:22.628Z,91.38
2017-12-13T13:09:48.406Z,91.87
2017-12-13T13:12:14.669Z,91.82
2017-12-13T13:14:41.896Z,91.84
2017-12-13T13:17:08.788Z,91.99
2017-12-13T13:19:35.667Z,91.62
2017-12-13T13:22:02.355Z,91.88
2017-12-13T13:24:29.957Z,91.96
2017-12-13T13:26:55.879Z,91.67
2017-12-13T13:29:22.470Z,91.11
2017-12-13T13:31:48.278Z,91.44
2017-12-13T13:34:14.083Z,90.80
2017-12-13T13:36:39.883Z,90.83
2017-12-13T13:39:05.676Z,90.86
2017-12-13T13:41:32.196Z,90.33
2017-12-13T13:43:58.032Z,90.24
2017-12-13T13:46:25.144Z,89.18
2017-12-13T13:48:51.599Z,90.33
2017-12-13T13:51:17.442Z,90.41
2017-12-13T13:53:43.220Z,90.48
2017-12-13T13:56:09.024Z,91.04
2017-12-13T13:58:35.132Z,90.89
2017-12-13T14:01:00.916Z,91.06
2017-12-13T14:03:26.688Z,90.37
2017-12-13T14:05:52.638Z,90.96
2017-12-13T14:08:18.426Z,90.87
2017-12-13T14:10:44.211Z,90.76
2017-12-13T14:13:10.978Z,91.35
2017-12-13T14:15:36.755Z,91.18
2017-12-13T14:18:02.539Z,91.63
2017-12-13T14:20:28.367Z,91.23
2017-12-13T14:22:54.153Z,91.71
2017-12-13T14:25:19.927Z,91.63
2017-12-13T14:27:45.743Z,92.18
2017-12-13T14:30:11.535Z,92.67
2017-12-13T14:32:37.331Z,92.21
2017-12-13T14:35:03.147Z,92.29
2017-12-13T14:37:28.931Z,92.75
2017-12-13T14:39:54.703Z,92.59
2017-12-13T14:42:20.595Z,92.65
2017-12-13T14:44:46.380Z,92.55
2017-12-13T14:47:12.159Z,92.93
2017-12-13T14:49:37.959Z,92.81
2017-12-13T14:52:03.746Z,92.72
2017-12-13T14:54:29.523Z,93.16
2017-12-13T14:56:55.498Z,92.90
2017-12-13T14:59:21.282Z,93.16
2017-12-13T15:01:47.061Z,93.16
2017-12-13T15:04:13.163Z,93.49
2017-12-13T15:06:38.983Z,93.33
2017-12-13T15:09:04.772Z,93.33
2017-12-13T15:11:30.573Z,93.30
2017-12-13T15:13:56.352Z,93.75
2017-12-13T15:16:22.148Z,93.45
2017-12-13T15:18:47.969Z,93.84
2017-12-13T15:21:13.755Z,93.52
2017-12-13T15:23:39.545Z,93.85
2017-12-13T15:26:05.350Z,93.24
2017-12-13T15:28:31.158Z,93.39
2017-12-13T15:30:56.953Z,93.56
2017-12-13T15:33:22.896Z,93.91
2017-12-13T15:35:48.692Z,93.86
2017-12-13T15:38:14.710Z,94.14
2017-12-13T15:40:40.720Z,94.43
2017-12-13T15:43:06.519Z,94.48
2017-12-13T15:45:32.347Z,94.51
2017-12-13T15:47:58.154Z,94.63
2017-12-13T15:50:23.942Z,94.84
2017-12-13T15:52:49.937Z,94.82
2017-12-13T15:55:15.714Z,94.73
2017-12-13T15:57:41.507Z,94.68
2017-12-13T16:00:07.485Z,94.92
2017-12-13T16:02:33.301Z,94.77
2017-12-13T16:04:59.104Z,94.76
2017-12-13T16:07:25.171Z,94.50
2017-12-13T16:09:50.968Z,94.69
2017-12-13T16:12:16.765Z,94.62
2017-12-13T16:14:42.566Z,94.71
2017-12-13T16:17:08.351Z,94.75
2017-12-13T16:19:34.126Z,94.57
2017-12-13T16:21:59.926Z,95.01
2017-12-13T16:24:25.708Z,94.81
2017-12-13T16:26:51.486Z,94.82
2017-12-13T16:29:17.303Z,94.96
2017-12-13T16:31:43.869Z,94.75
2017-12-13T16:34:09.655Z,95.16
2017-12-13T16:36:36.388Z,94.85
2017-12-13T16:39:02.213Z,95.04
2017-12-13T16:41:28.249Z,94.80
2017-12-13T16:43:54.998Z,94.88
2017-12-13T16:46:20.796Z,94.83
2017-12-13T16:48:46.584Z,94.73
2017-12-13T16:51:13.063Z,94.50
2017-12-13T16:53:38.847Z,94.60
2017-12-13T16:56:04.712Z,94.61
2017-12-13T16:58:31.395Z,94.20
2017-12-13T17:00:57.218Z,94.38
2017-12-13T17:03:23.099Z,94.14
2017-12-13T17:05:50.837Z,94.12
2017-12-13T17:08:17.179Z,94.41
2017-12-13T17:10:43.053Z,94.85
2017-12-13T17:13:09.859Z,95.00
2017-12-13T17:15:37.459Z,94.57
2017-12-13T17:18:04.144Z,94.29
2017-12-13T17:20:31.364Z,94.55
2017-12-13T17:22:57.158Z,94.88
2017-12-13T17:25:23.860Z,94.45
2017-12-13T17:27:49.717Z,94.55
2017-12-13T17:30:16.138Z,94.46
2017-12-13T17:32:41.989Z,94.37
2017-12-13T17:35:08.501Z,94.19
2017-12-13T17:37:34.573Z,94.05
2017-12-13T17:40:00.454Z,94.02
2017-12-13T17:42:26.977Z,94.17
2017-12-13T17:44:52.764Z,93.93
2017-12-13T17:47:19.539Z,94.40
2017-12-13T17:49:46.843Z,94.73
2017-12-13T17:52:12.670Z,94.48
2017-12-13T17:54:40.344Z,94.57
2017-12-13T17:57:06.229Z,94.53
2017-12-13T17:59:32.061Z,94.64
2017-12-13T18:01:58.605Z,95.07
2017-12-13T18:04:24.415Z,95.12
2017-12-13T18:06:51.156Z,95.18
2017-12-13T18:09:18.119Z,95.22
2017-12-13T18:11:43.978Z,94.94
2017-12-13T18:14:09.796Z,94.87
2017-12-13T18:16:35.644Z,94.58
2017-12-13T18:19:01.799Z,94.81
2017-12-13T18:21:27.664Z,95.03
2017-12-13T18:23:53.962Z,94.79
2017-12-13T18:26:19.815Z,94.54
2017-12-13T18:28:46.248Z,94.74
2017-12-13T18:31:12.076Z,94.66
2017-12-13T18:33:38.482Z,94.89
2017-12-13T18:36:04.307Z,95.40
2017-12-13T18:38:30.944Z,95.29
2017-12-13T18:40:56.851Z,95.29
2017-12-13T18:43:22.672Z,95.56
2017-12-13T18:45:48.508Z,95.67
2017-12-13T18:48:15.207Z,95.77
2017-12-13T18:50:41.038Z,96.02
2017-12-13T18:53:07.143Z,95.96
2017-12-13T18:55:32.982Z,96.11
2017-12-13T18:57:59.852Z,96.34
2017-12-13T19:00:28.032Z,96.28
2017-12-13T19:02:54.739Z,96.58
2017-12-13T19:05:20.562Z,96.41
2017-12-13T19:07:46.375Z,96.32
2017-12-13T19:10:12.929Z,96.42
2017-12-13T19:12:39.306Z,96.44
2017-12-13T19:15:06.032Z,96.54
2017-12-13T19:17:32.866Z,96.36
2017-12-13T19:19:59.308Z,96.15
2017-12-13T19:22:25.106Z,96.42
2017-12-13T19:24:50.940Z,96.23
2017-12-13T19:27:18.630Z,96.41
2017-12-13T19:29:44.455Z,96.23
2017-12-13T19:34:43.032Z,96.20
2017-12-13T19:37:09.459Z,95.98
2017-12-13T19:39:36.178Z,96.13
2017-12-13T19:42:01.981Z,96.29
2017-12-13T19:44:28.039Z,96.27
2017-12-13T19:46:53.843Z,96.19
2017-12-13T19:49:20.173Z,96.22
2017-12-13T19:51:47.384Z,96.17
2017-12-13T19:54:13.587Z,95.97
2017-12-13T19:56:41.571Z,96.03
2017-12-13T19:59:08.579Z,96.11
2017-12-13T20:01:34.430Z,96.19
2017-12-13T20:04:00.267Z,95.96
2017-12-13T20:06:26.081Z,95.94
2017-12-13T20:08:52.401Z,96.08
2017-12-13T20:11:18.200Z,96.16
2017-12-13T20:13:44.717Z,95.98
2017-12-13T20:16:10.523Z,95.65
2017-12-13T20:18:36.309Z,95.61
2017-12-13T20:21:04.660Z,95.68
2017-12-13T20:23:30.470Z,95.54
2017-12-13T20:25:56.264Z,95.71
2017-12-13T20:28:22.291Z,95.38
2017-12-13T20:30:48.088Z,94.97
2017-12-13T20:33:13.884Z,94.91
2017-12-13T20:35:39.948Z,94.74
2017-12-13T20:38:05.876Z,94.98
2017-12-13T20:40:31.992Z,94.80
2017-12-13T20:42:58.727Z,94.38
2017-12-13T20:45:24.541Z,94.44
2017-12-13T20:47:50.689Z,94.28
2017-12-13T20:50:17.272Z,94.29
2017-12-13T20:52:43.067Z,94.27
2017-12-13T20:55:09.612Z,94.07
2017-12-13T20:57:35.417Z,93.96
2017-12-13T21:00:01.594Z,93.92
2017-12-13T21:02:27.548Z,93.30
2017-12-13T21:04:55.125Z,93.32
2017-12-13T21:07:21.631Z,93.09
2017-12-13T21:09:48.170Z,92.78
2017-12-13T21:12:13.991Z,92.35
2017-12-13T21:14:41.051Z,92.60
2017-12-13T21:17:07.491Z,92.47
2017-12-13T21:19:33.290Z,92.51
2017-12-13T21:21:59.067Z,92.07
2017-12-13T21:24:24.916Z,91.74
2017-12-13T21:26:51.830Z,92.03
2017-12-13T21:29:17.593Z,92.28
2017-12-13T21:31:43.417Z,91.71
2017-12-13T21:34:09.215Z,91.56
2017-12-13T21:36:35.528Z,91.67
2017-12-13T21:39:01.410Z,91.57
2017-12-13T21:41:27.242Z,91.78
2017-12-13T21:43:53.037Z,91.42
2017-12-13T21:46:19.736Z,91.71
2017-12-13T21:48:45.535Z,91.74
2017-12-13T21:51:12.596Z,91.89
2017-12-13T21:53:38.407Z,91.85
2017-12-13T21:56:05.775Z,92.14
2017-12-13T21:58:31.559Z,92.11
2017-12-13T22:00:57.351Z,92.40
2017-12-13T22:03:25.426Z,92.39
2017-12-13T22:05:52.131Z,92.05
2017-12-13T22:08:18.833Z,91.76
2017-12-13T22:10:45.496Z,92.04
2017-12-13T22:13:12.475Z,91.94
2017-12-13T22:15:39.252Z,92.26
2017-12-13T22:18:05.058Z,92.37
2017-12-13T22:20:31.291Z,92.16
2017-12-13T22:22:57.086Z,92.83
2017-12-13T22:25:23.094Z,93.83
2017-12-13T22:27:50.066Z,94.20
2017-12-13T22:30:16.240Z,92.56
2017-12-13T22:32:42.048Z,95.74
2017-12-13T22:35:08.188Z,91.67
2017-12-13T22:37:35.154Z,92.42
2017-12-13T22:40:01.768Z,92.42
2017-12-13T22:42:28.310Z,89.78
2017-12-13T22:44:54.108Z,90.88
2017-12-13T22:47:20.771Z,90.89
2017-12-13T22:49:46.563Z,90.86
2017-12-13T22:52:12.374Z,91.76
2017-12-13T22:54:39.077Z,92.60
2017-12-13T22:57:06.179Z,92.78
2017-12-13T22:59:32.055Z,92.78
2017-12-13T23:01:57.849Z,92.44
2017-12-13T23:04:23.663Z,92.32
2017-12-13T23:06:50.054Z,90.55
2017-12-13T23:09:15.876Z,91.04
2017-12-13T23:11:42.251Z,91.88
2017-12-13T23:14:08.042Z,92.27
2017-12-13T23:16:33.869Z,90.44
2017-12-13T23:18:59.709Z,91.23
2017-12-13T23:21:25.499Z,92.87
2017-12-13T23:23:52.244Z,91.57
2017-12-13T23:26:18.090Z,90.68
2017-12-13T23:28:43.896Z,90.99
2017-12-13T23:31:10.275Z,90.67
2017-12-13T23:33:36.074Z,92.24
2017-12-13T23:36:02.767Z,92.12
2017-12-13T23:38:28.573Z,92.51
2017-12-13T23:40:54.355Z,90.86
2017-12-13T23:43:20.827Z,92.65
2017-12-13T23:45:46.635Z,89.96
2017-12-13T23:48:12.435Z,91.24
2017-12-13T23:50:39.540Z,91.04
2017-12-13T23:53:06.325Z,90.88
2017-12-13T23:55:32.132Z,92.16
2017-12-13T23:57:58.451Z,91.35
